Terminal Aerodrome Forecast
Issued by NWS Upton, NY

Home | Current Version | Previous Version | Text Only | Print | Product List | Glossary On
Versions: 1 2 3 4 5 6 7 8 9 10 11 12 13 14 15 16 17 18 19 20 21 22 23 24 25 26 27 28 29 30 31
000
FTUS41 KOKX 300230 AAA
TAFJFK
TAF AMD
KJFK 300230Z 3003/3106 20011KT P6SM BKN250
     FM300900 21012KT P6SM OVC100
     FM301100 21015KT P6SM SCT020 OVC050
     FM301400 23015KT P6SM SCT020 OVC050
     FM301800 25016G24KT P6SM BKN050
     FM302200 28017G26KT P6SM BKN050
     FM310100 29013KT P6SM FEW050=

USA.gov is the U.S. government's official web portal to all federal, state and local government web resources and services.